Huvudsida
METAR-TAF:

METAR-TAF

Flygplatser :

Antonio B. Won Pat International Airport

Hagåtña, Guam, USA

latitud: 13-29N, longitud: 144-48E, höjd: 91 m

Aktuellt väderrapport

Denna rapport gjordes för 56 minuter sedan, klockan 10:54 UTC
Vind 3 kt från syd
Temperatur 26°C
Fuktighet 100%
Tryck 1009 hPa
Sikt: 16.1 km
Klar himmel

METAR: PGUM 251054Z 17003KT 10SM CLR 26/26 A2981 RMK AO2 SLP087 T02610261

Tid: 21:50 (11:50 UTC)

Väderprognos

Denna rapport gjordes för 30 minuter sedan, klockan 11:20 UTC
Prognos gäller från 25 kl. 12 UTC till 26 kl. 18 UTC
Vind 7 kt från syd/sydväst
Sikt: 10 km
Spridda moln på en höjd av 92000 ft
skurar i närheten

TAF: PGUM 251120Z 2512/2618 20007KT P6SM VCSH SCT920

Aktuella väderrapporter och prognoser från 4000 flygplatser (METAR- och TAF-rapporter).

De tillgängliga stationerna syns som gula och röda prickar på kartan.

För musen över prickarna för att se namnen på stationerna.

Klicka sedan för att få väderrapporter och prognoser.

För att ändra kartan: Klicka på de gröna knapparna med ett svart kors på för att zooma in; den gröna knappen med ett streck på för att zooma ut; eller på de gröna pilarna för angränsande kartor.


METAR-TAF: